Time;durP1;ratioP1;P1;durP2;ratioP2;P2;SDS_P1;SDS_P2;PMS_P1;PMS_P2;Temp;Humidity;BMP_temperature;BMP_pressure;BME280_temperature;BME280_humidity;BME280_pressure;Samples;Min_cycle;Max_cycle;Signal;HPM_P1;HPM_P2
2020/12/08 00:02:14;;;;;;;10.95;8.80;;;;;;;18.75;51.99;100179.13;4822910;29;20536;-78
2020/12/08 00:04:41;;;;;;;10.60;7.30;;;;;;;18.76;52.00;100181.72;4863043;29;20037;-78
2020/12/08 00:07:07;;;;;;;9.80;8.13;;;;;;;18.70;51.85;100166.09;4863183;29;20507;-78
2020/12/08 00:09:33;;;;;;;8.75;6.65;;;;;;;18.70;51.92;100165.22;4844473;29;20026;-78
2020/12/08 00:11:58;;;;;;;9.63;7.55;;;;;;;18.75;51.72;100176.50;4829350;29;20040;-78
2020/12/08 00:14:24;;;;;;;8.95;7.43;;;;;;;18.73;51.96;100176.50;4829234;29;20030;-78
2020/12/08 00:16:49;;;;;;;9.60;7.78;;;;;;;18.70;51.88;100171.31;4839477;29;20030;-78
2020/12/08 00:19:15;;;;;;;9.80;7.18;;;;;;;18.70;51.63;100179.19;4862690;29;20381;-78
2020/12/08 00:21:44;;;;;;;10.73;7.43;;;;;;;18.70;51.60;100178.31;4847610;29;20481;-78
2020/12/08 00:24:09;;;;;;;9.55;8.05;;;;;;;18.70;51.67;100186.16;4861710;29;20058;-78
2020/12/08 00:26:38;;;;;;;9.32;6.88;;;;;;;18.67;51.64;100181.88;4861371;29;20026;-78
2020/12/08 00:29:05;;;;;;;9.20;7.15;;;;;;;18.64;51.68;100170.56;4862428;29;20089;-78
2020/12/08 00:31:30;;;;;;;11.50;7.57;;;;;;;18.66;51.53;100179.28;4862139;29;20033;-78
2020/12/08 00:33:56;;;;;;;10.55;8.07;;;;;;;18.53;51.50;100157.63;4846267;29;20508;-78
2020/12/08 00:36:22;;;;;;;10.45;7.22;;;;;;;18.68;51.90;100178.38;4845556;29;20477;-78
2020/12/08 00:38:48;;;;;;;9.63;7.32;;;;;;;18.69;51.74;100187.09;4862051;29;20036;-78
2020/12/08 00:41:17;;;;;;;12.95;7.90;;;;;;;18.67;51.41;100184.50;4860969;29;20033;-78
2020/12/08 00:43:44;;;;;;;10.90;8.80;;;;;;;18.65;51.66;100193.25;4860907;29;20477;-78
2020/12/08 00:46:14;;;;;;;9.32;7.90;;;;;;;18.61;51.69;100191.56;4842865;29;20052;-78
2020/12/08 00:48:39;;;;;;;9.95;8.43;;;;;;;18.63;51.55;100195.03;4861759;29;20033;-79
2020/12/08 00:51:05;;;;;;;9.88;7.78;;;;;;;18.64;51.42;100202.88;4846209;29;20033;-78
2020/12/08 00:53:31;;;;;;;9.75;7.78;;;;;;;18.59;51.58;100185.47;4846263;29;20030;-79
2020/12/08 00:55:56;;;;;;;9.50;7.20;;;;;;;18.61;51.49;100188.94;4853210;29;20128;-78
2020/12/08 00:58:21;;;;;;;10.65;7.85;;;;;;;18.62;51.56;100188.91;4860926;29;20481;-78
2020/12/08 01:00:47;;;;;;;9.95;8.15;;;;;;;18.61;51.52;100192.44;4842861;29;20045;-78
2020/12/08 01:03:12;;;;;;;11.05;8.32;;;;;;;18.60;51.45;100193.31;4843814;29;20038;-79
2020/12/08 01:05:37;;;;;;;12.52;8.95;;;;;;;18.49;51.21;100179.50;4828354;29;20036;-78
2020/12/08 01:08:03;;;;;;;9.77;8.13;;;;;;;18.47;51.40;100181.25;4837347;29;20026;-78
2020/12/08 01:10:28;;;;;;;9.80;7.35;;;;;;;18.47;51.64;100186.50;4843598;29;20022;-78
2020/12/08 01:12:54;;;;;;;8.55;7.22;;;;;;;18.56;51.24;100208.16;4845674;29;20038;-78
2020/12/08 01:15:19;;;;;;;9.57;7.75;;;;;;;18.58;51.60;100210.78;4828728;29;20038;-78
2020/12/08 01:17:45;;;;;;;10.65;8.90;;;;;;;18.52;51.50;100209.13;4843216;29;20038;-78
2020/12/08 01:20:10;;;;;;;11.43;8.90;;;;;;;18.56;51.48;100216.03;4846870;29;20033;-78
2020/12/08 01:22:35;;;;;;;10.95;8.30;;;;;;;18.55;51.43;100216.06;4861192;29;20072;-79
2020/12/08 01:25:01;;;;;;;11.73;8.90;;;;;;;18.58;51.19;100223.88;4846042;29;20438;-78
2020/12/08 01:27:26;;;;;;;9.15;7.88;;;;;;;18.59;51.52;100230.00;4845944;29;20034;-78
2020/12/08 01:29:51;;;;;;;9.88;8.20;;;;;;;18.52;51.31;100218.72;4848525;29;20033;-78
2020/12/08 01:32:17;;;;;;;10.07;8.32;;;;;;;18.56;51.28;100223.88;4829445;29;20038;-78
2020/12/08 01:34:42;;;;;;;9.25;7.90;;;;;;;18.54;51.63;100216.97;4827404;29;20443;-78
2020/12/08 01:37:07;;;;;;;8.80;7.50;;;;;;;18.56;51.41;100230.91;4827583;29;20473;-78
2020/12/08 01:39:33;;;;;;;11.05;8.57;;;;;;;18.49;51.27;100216.16;4823834;29;20502;-78
2020/12/08 01:41:59;;;;;;;11.63;8.32;;;;;;;18.40;51.22;100217.16;4815704;29;20050;-79
2020/12/08 01:44:24;;;;;;;10.80;8.35;;;;;;;18.52;51.12;100229.22;4830652;29;20054;-78
2020/12/08 01:46:50;;;;;;;11.23;9.45;;;;;;;18.45;51.01;100206.59;4846062;29;20085;-78
2020/12/08 01:49:17;;;;;;;8.98;7.88;;;;;;;18.52;51.01;100231.81;4861345;29;20536;-78
2020/12/08 01:51:43;;;;;;;11.13;7.82;;;;;;;18.54;51.24;100246.63;4862031;29;20116;-78
2020/12/08 01:54:08;;;;;;;9.73;8.15;;;;;;;18.48;51.17;100240.59;4852893;29;20469;-78
2020/12/08 01:56:34;;;;;;;11.02;8.73;;;;;;;18.48;50.98;100248.44;4838864;29;20136;-78
2020/12/08 01:58:59;;;;;;;10.60;8.20;;;;;;;18.46;51.01;100244.97;4817816;29;20030;-78
2020/12/08 02:01:25;;;;;;;10.77;8.32;;;;;;;18.49;51.24;100250.19;4827593;29;20026;-78
2020/12/08 02:03:50;;;;;;;12.57;9.02;;;;;;;18.44;50.79;100241.53;4842536;29;20045;-78
2020/12/08 02:06:16;;;;;;;11.80;9.20;;;;;;;18.46;51.02;100247.59;4844996;29;20090;-78
2020/12/08 02:08:42;;;;;;;11.02;8.80;;;;;;;18.46;51.06;100255.47;4847046;29;20081;-78
2020/12/08 02:11:07;;;;;;;9.98;8.45;;;;;;;18.47;50.70;100257.19;4860863;29;20051;-78
2020/12/08 02:13:33;;;;;;;9.85;8.35;;;;;;;18.42;51.08;100235.47;4862090;29;20167;-78
2020/12/08 02:15:59;;;;;;;8.85;7.50;;;;;;;18.46;51.00;100247.59;4861599;29;20034;-78
2020/12/08 02:18:25;;;;;;;10.63;8.65;;;;;;;18.46;51.17;100244.97;4843417;29;20033;-78
2020/12/08 02:20:58;;;;;;;9.48;8.07;;;;;;;18.48;51.00;100251.06;4846017;29;20030;-78
2020/12/08 02:23:24;;;;;;;10.20;9.10;;;;;;;18.45;50.94;100245.88;4839153;29;20053;-78
2020/12/08 02:26:00;;;;;;;11.13;8.88;;;;;;;18.47;50.97;100258.06;4842259;29;20401;-78
2020/12/08 02:28:27;;;;;;;10.18;8.57;;;;;;;18.47;51.25;100257.19;4846685;29;20014;-79
2020/12/08 02:30:53;;;;;;;12.65;8.43;;;;;;;18.43;51.07;100240.69;4846230;29;20029;-78
2020/12/08 02:33:24;;;;;;;11.07;8.23;;;;;;;18.42;50.98;100238.09;4835376;29;20041;-78
2020/12/08 02:35:50;;;;;;;9.10;8.15;;;;;;;18.38;50.78;100232.03;4859857;29;20033;-78
2020/12/08 02:38:15;;;;;;;11.80;8.75;;;;;;;18.42;51.11;100246.81;4861066;29;20032;-78
2020/12/08 02:40:41;;;;;;;11.30;9.02;;;;;;;18.43;50.81;100250.28;4845020;29;20034;-78
2020/12/08 02:43:06;;;;;;;10.52;8.40;;;;;;;18.38;50.80;100244.25;4845263;29;20041;-78
2020/12/08 02:45:32;;;;;;;8.95;8.00;;;;;;;18.26;50.90;100221.72;4860139;29;20029;-79
2020/12/08 02:47:58;;;;;;;9.85;8.32;;;;;;;18.37;51.07;100229.41;4829346;29;20094;-79
2020/12/08 02:50:23;;;;;;;12.00;8.35;;;;;;;18.43;51.04;100243.31;4826711;29;20029;-78
2020/12/08 02:52:49;;;;;;;9.90;8.23;;;;;;;18.37;50.80;100245.13;4819875;29;20090;-78
2020/12/08 02:55:15;;;;;;;10.23;8.45;;;;;;;18.43;50.83;100268.63;4825410;29;20093;-78
2020/12/08 02:57:41;;;;;;;10.68;8.40;;;;;;;18.40;50.83;100266.91;4859801;29;20030;-78
2020/12/08 03:00:06;;;;;;;10.77;8.23;;;;;;;18.40;50.82;100263.41;4841679;29;20086;-78
2020/12/08 03:02:31;;;;;;;9.70;8.23;;;;;;;18.40;50.82;100253.81;4822831;29;20116;-79
2020/12/08 03:04:57;;;;;;;11.23;8.32;;;;;;;18.42;50.70;100259.03;4841681;29;20119;-79
2020/12/08 03:07:22;;;;;;;9.43;7.57;;;;;;;18.35;50.46;100246.91;4840719;29;20033;-78
2020/12/08 03:09:47;;;;;;;9.65;8.07;;;;;;;18.35;51.13;100253.00;4829093;29;20062;-78
2020/12/08 03:12:13;;;;;;;9.48;7.97;;;;;;;18.38;50.58;100260.81;4829225;29;20029;-78
2020/12/08 03:14:38;;;;;;;9.63;8.13;;;;;;;18.34;50.66;100258.25;4829613;29;20089;-78
2020/12/08 03:17:05;;;;;;;10.75;8.45;;;;;;;18.41;50.82;100263.41;4844983;29;20086;-78
2020/12/08 03:19:30;;;;;;;10.48;9.13;;;;;;;18.33;50.40;100251.28;4859903;29;20071;-78
2020/12/08 03:21:56;;;;;;;11.60;9.05;;;;;;;18.35;50.58;100260.84;4859893;29;20114;-78
2020/12/08 03:24:21;;;;;;;9.80;8.65;;;;;;;18.34;50.74;100248.66;4849473;29;20073;-78
2020/12/08 03:26:47;;;;;;;11.07;8.80;;;;;;;18.35;50.65;100247.75;4823140;29;20041;-78
2020/12/08 03:29:12;;;;;;;9.63;7.63;;;;;;;18.35;50.54;100252.13;4860008;29;20057;-78
2020/12/08 03:31:37;;;;;;;8.95;7.75;;;;;;;18.30;50.57;100233.03;4859437;29;20029;-79
2020/12/08 03:34:03;;;;;;;10.65;8.85;;;;;;;18.29;50.66;100226.91;4826663;29;20037;-78
2020/12/08 03:36:28;;;;;;;10.30;8.48;;;;;;;18.33;50.55;100239.06;4845039;29;20037;-78
2020/12/08 03:38:53;;;;;;;11.52;8.35;;;;;;;18.34;51.03;100245.16;4844962;29;20473;-79
2020/12/08 03:41:20;;;;;;;8.40;7.45;;;;;;;18.34;50.79;100237.31;4860901;29;20080;-79
2020/12/08 03:43:47;;;;;;;8.52;7.28;;;;;;;18.30;50.75;100231.28;4860918;29;20022;-78
2020/12/08 03:46:31;;;;;;;9.18;7.57;;;;;;;18.30;50.70;100235.63;4860924;29;20033;-78
2020/12/08 03:48:56;;;;;;;10.43;8.27;;;;;;;18.33;50.64;100231.19;4842212;29;20501;-79
2020/12/08 03:51:22;;;;;;;9.20;7.28;;;;;;;18.33;50.43;100233.81;4844218;29;20041;-79
2020/12/08 03:53:48;;;;;;;9.30;7.18;;;;;;;18.32;50.68;100228.59;4863535;29;20061;-79
2020/12/08 03:56:15;;;;;;;9.55;8.15;;;;;;;18.32;50.41;100237.31;4833815;29;20038;-79
2020/12/08 03:58:41;;;;;;;10.43;8.23;;;;;;;18.33;50.67;100236.44;4846925;29;20511;-79
2020/12/08 04:01:11;;;;;;;8.48;7.53;;;;;;;18.32;50.73;100234.72;4852473;29;20128;-78
2020/12/08 04:03:37;;;;;;;8.45;7.15;;;;;;;18.27;50.74;100236.53;4845856;29;20442;-79
2020/12/08 04:06:03;;;;;;;9.43;7.53;;;;;;;18.28;50.61;100242.63;4830236;29;20033;-78
2020/12/08 04:08:29;;;;;;;8.88;7.18;;;;;;;18.26;50.74;100240.03;4852843;29;20025;-79
2020/12/08 04:10:54;;;;;;;9.43;8.23;;;;;;;18.30;50.69;100246.97;4830961;29;20393;-78
2020/12/08 04:13:20;;;;;;;8.40;7.05;;;;;;;18.27;50.64;100252.25;4838524;29;20116;-78
2020/12/08 04:15:46;;;;;;;8.32;7.20;;;;;;;18.34;50.33;100259.13;4864509;29;20572;-79
2020/12/08 04:18:11;;;;;;;8.65;7.25;;;;;;;18.33;50.33;100254.75;4861255;29;20375;-78
2020/12/08 04:20:40;;;;;;;7.68;6.47;;;;;;;18.44;50.33;100268.56;4830903;29;20112;-78
2020/12/08 04:23:05;;;;;;;9.15;7.28;;;;;;;18.42;50.27;100270.38;4840967;29;20088;-78
2020/12/08 04:25:33;;;;;;;8.07;7.28;;;;;;;18.50;50.31;100278.09;4827304;29;20061;-78
2020/12/08 04:27:58;;;;;;;7.75;6.55;;;;;;;18.51;50.11;100266.75;4846191;29;20093;-78
2020/12/08 04:30:23;;;;;;;9.20;7.45;;;;;;;18.52;50.27;100266.72;4833833;29;20033;-78
2020/12/08 04:32:49;;;;;;;7.97;6.75;;;;;;;18.50;50.42;100267.63;4847137;29;20030;-78
2020/12/08 04:35:14;;;;;;;8.10;6.95;;;;;;;18.60;50.17;100284.09;4847576;29;20030;-78
2020/12/08 04:37:39;;;;;;;7.75;6.20;;;;;;;18.57;50.31;100277.13;4847063;29;20068;-78
2020/12/08 04:40:05;;;;;;;8.00;6.45;;;;;;;18.56;50.34;100286.72;4847360;29;20062;-78
2020/12/08 04:42:30;;;;;;;9.07;7.13;;;;;;;18.49;50.35;100274.63;4828785;29;20033;-79
2020/12/08 04:44:58;;;;;;;7.85;6.32;;;;;;;18.62;50.05;100283.19;4829808;29;20040;-79
2020/12/08 04:47:24;;;;;;;7.88;6.65;;;;;;;18.66;50.33;100290.13;4863672;29;20029;-78
2020/12/08 04:49:52;;;;;;;7.43;6.25;;;;;;;18.63;50.23;100287.56;4843761;29;20038;-78
2020/12/08 04:52:17;;;;;;;9.05;6.97;;;;;;;18.70;50.13;100285.69;4856430;29;20108;-78
2020/12/08 04:54:43;;;;;;;7.60;6.78;;;;;;;18.69;50.30;100286.59;4861954;29;20049;-78
2020/12/08 04:57:08;;;;;;;7.25;5.88;;;;;;;18.64;50.20;100284.03;4831391;29;20025;-78
2020/12/08 04:59:35;;;;;;;10.07;7.57;;;;;;;18.73;50.16;100297.00;4861930;29;20112;-78
2020/12/08 05:02:03;;;;;;;6.90;5.68;;;;;;;18.72;50.30;100289.16;4846598;29;20033;-78
2020/12/08 05:04:29;;;;;;;7.18;6.40;;;;;;;18.68;50.33;100305.81;4861869;29;20065;-78
2020/12/08 05:07:02;;;;;;;7.20;6.07;;;;;;;18.71;50.30;100306.63;4827936;29;20110;-78
2020/12/08 05:09:27;;;;;;;7.10;5.75;;;;;;;18.74;50.22;100296.13;4861200;29;20032;-78
2020/12/08 05:11:58;;;;;;;6.85;6.07;;;;;;;18.72;50.20;100310.97;4821986;29;20033;-78
2020/12/08 05:14:23;;;;;;;7.25;5.97;;;;;;;18.69;50.25;100307.56;4833736;29;20493;-79
2020/12/08 05:16:48;;;;;;;6.20;5.60;;;;;;;18.66;50.05;100292.75;4843456;29;20034;-78
2020/12/08 05:19:15;;;;;;;6.85;5.85;;;;;;;18.70;50.22;100299.66;4823557;29;20034;-78
2020/12/08 05:21:50;;;;;;;7.22;5.65;;;;;;;18.70;50.50;100306.66;4846029;29;20430;-78
2020/12/08 05:24:41;;;;;;;6.95;5.85;;;;;;;18.77;50.39;100314.41;4831036;29;20033;-78
2020/12/08 05:27:07;;;;;;;7.32;5.75;;;;;;;18.77;50.09;100309.19;4840795;29;20489;-79
2020/12/08 05:29:34;;;;;;;9.55;5.35;;;;;;;18.48;50.40;100266.78;4827731;29;20040;-78
2020/12/08 05:32:24;;;;;;;6.45;5.82;;;;;;;18.77;50.34;100309.19;4848318;29;20029;-78
2020/12/08 05:34:54;;;;;;;8.05;6.20;;;;;;;18.75;50.22;100312.69;4850569;29;20112;-77
2020/12/08 05:37:20;;;;;;;7.50;6.68;;;;;;;18.64;50.35;100296.28;4861522;29;20056;-78
2020/12/08 05:39:46;;;;;;;6.80;5.75;;;;;;;18.76;50.25;100309.19;4861944;29;20036;-78
2020/12/08 05:42:19;;;;;;;7.28;5.95;;;;;;;18.81;50.38;100315.25;4845653;29;20033;-79
2020/12/08 05:44:51;;;;;;;6.53;4.90;;;;;;;18.78;50.37;100315.28;4861298;29;20100;-78
2020/12/08 05:47:21;;;;;;;6.70;5.35;;;;;;;18.79;50.26;100311.78;4850866;29;20057;-78
2020/12/08 05:50:00;;;;;;;6.72;5.40;;;;;;;18.83;50.21;100313.44;4840073;29;20029;-78
2020/12/08 05:52:33;;;;;;;6.57;5.45;;;;;;;18.70;50.57;100301.41;4859370;29;20053;-78
2020/12/08 05:55:28;;;;;;;6.45;5.32;;;;;;;18.79;50.38;100310.03;4859891;29;20388;-79
2020/12/08 05:57:53;;;;;;;6.85;5.50;;;;;;;18.83;50.22;100323.91;4857815;29;20121;-78
2020/12/08 06:00:22;;;;;;;5.75;5.05;;;;;;;18.79;50.13;100317.88;4845105;29;20033;-78
2020/12/08 06:02:59;;;;;;;5.32;4.80;;;;;;;18.59;50.38;100293.72;4861409;29;20029;-77
2020/12/08 06:05:26;;;;;;;6.88;5.05;;;;;;;18.73;50.15;100304.84;4839448;29;20476;-78
2020/12/08 06:07:51;;;;;;;6.07;4.90;;;;;;;18.83;50.16;100334.41;4860452;29;20025;-78
2020/12/08 06:10:16;;;;;;;6.57;4.93;;;;;;;18.79;49.83;100328.34;4842685;29;20037;-78
2020/12/08 06:12:42;;;;;;;5.45;4.82;;;;;;;18.75;50.33;100331.91;4828104;29;20125;-78
2020/12/08 06:15:24;;;;;;;5.78;5.07;;;;;;;18.65;50.49;100311.09;4824738;29;20025;-78
2020/12/08 06:17:52;;;;;;;6.55;4.65;;;;;;;18.56;50.31;100307.66;4868878;29;20028;-80
2020/12/08 06:20:19;;;;;;;9.32;6.55;;;;;;;18.69;50.61;100326.75;4842515;29;20033;-78
2020/12/08 06:22:59;;;;;;;9.48;5.28;;;;;;;18.79;50.40;100332.72;4859371;29;20397;-78
2020/12/08 06:25:26;;;;;;;9.43;5.70;;;;;;;18.78;50.32;100341.47;4817001;29;20036;-77
2020/12/08 06:27:56;;;;;;;6.85;5.75;;;;;;;18.84;50.56;100341.38;4841733;29;20162;-78
2020/12/08 06:30:40;;;;;;;11.00;6.40;;;;;;;18.89;50.57;100344.81;4840160;29;20038;-81
2020/12/08 06:33:05;;;;;;;7.63;5.93;;;;;;;18.77;50.58;100332.75;4841183;29;20034;-77
2020/12/08 06:35:32;;;;;;;7.55;5.43;;;;;;;18.86;50.72;100340.47;4796327;29;20056;-77
2020/12/08 06:38:00;;;;;;;7.75;5.93;;;;;;;18.85;50.90;100330.00;4812341;29;20371;-78
2020/12/08 06:40:25;;;;;;;9.68;5.90;;;;;;;18.84;50.88;100339.63;4817416;29;20033;-78
2020/12/08 06:42:52;;;;;;;6.47;5.32;;;;;;;18.83;50.94;100340.50;4841867;29;20029;-78
2020/12/08 06:45:18;;;;;;;6.30;5.25;;;;;;;18.90;50.93;100351.78;4855069;29;20059;-76
2020/12/08 06:47:46;;;;;;;7.45;5.78;;;;;;;18.89;50.90;100350.91;4845616;29;20033;-78
2020/12/08 06:50:20;;;;;;;7.75;5.20;;;;;;;18.94;50.60;100352.59;4828378;29;20042;-78
2020/12/08 06:53:00;;;;;;;10.20;5.53;;;;;;;18.95;51.12;100347.34;4826861;29;20029;-77
2020/12/08 06:55:27;;;;;;;8.45;5.80;;;;;;;18.95;50.99;100354.34;4823005;29;20045;-77
2020/12/08 06:57:53;;;;;;;10.82;5.55;;;;;;;18.90;50.93;100357.88;4845066;29;20034;-76
2020/12/08 07:00:19;;;;;;;8.30;5.47;;;;;;;18.97;50.98;100352.53;4814470;29;20038;-76
2020/12/08 07:02:50;;;;;;;5.97;4.90;;;;;;;18.89;51.00;100348.28;4845351;29;20033;-77
2020/12/08 07:05:36;;;;;;;6.35;5.20;;;;;;;18.92;50.92;100366.59;4841518;29;20029;-77
2020/12/08 07:08:03;;;;;;;8.40;5.80;;;;;;;18.99;51.04;100371.72;4840681;29;20072;-78
2020/12/08 07:10:30;;;;;;;7.60;5.75;;;;;;;18.98;50.80;100365.63;4821302;29;20116;-78
2020/12/08 07:12:55;;;;;;;8.18;5.10;;;;;;;18.91;50.91;100375.34;4842696;29;20092;-77
2020/12/08 07:15:25;;;;;;;7.22;5.35;;;;;;;18.95;50.96;100364.81;4828701;29;20033;-76
2020/12/08 07:17:59;;;;;;;6.68;4.95;;;;;;;19.01;50.73;100377.81;4842055;29;20093;-79
2020/12/08 07:20:25;;;;;;;7.32;4.75;;;;;;;18.94;51.08;100374.44;4823404;29;20099;-77
2020/12/08 07:22:52;;;;;;;8.40;4.90;;;;;;;18.97;50.79;100370.88;4837707;29;20056;-77
2020/12/08 07:25:18;;;;;;;8.82;5.35;;;;;;;18.95;50.93;100373.56;4843944;29;20032;-78
2020/12/08 07:27:52;;;;;;;6.22;4.57;;;;;;;18.91;50.82;100383.19;4859060;29;20511;-78
2020/12/08 07:30:18;;;;;;;;;;;;;;;18.96;51.09;100393.59;4859971;29;20496;-78
2020/12/08 07:32:43;;;;;;;7.53;5.55;;;;;;;18.97;50.78;100387.47;4856041;29;19922;-78
2020/12/08 07:35:19;;;;;;;7.53;4.72;;;;;;;18.94;50.91;100394.53;4847247;29;20120;-78
2020/12/08 07:37:45;;;;;;;9.05;4.38;;;;;;;18.95;51.24;100396.25;4862612;29;20452;-78
2020/12/08 07:40:12;;;;;;;8.68;4.28;;;;;;;18.99;50.94;100396.19;4862653;29;20112;-78
2020/12/08 07:42:38;;;;;;;6.18;5.00;;;;;;;18.96;50.81;100390.97;4831161;29;20042;-76
2020/12/08 07:45:08;;;;;;;5.88;4.00;;;;;;;18.96;50.94;100398.84;4847230;29;20129;-77
2020/12/08 07:47:34;;;;;;;6.13;4.57;;;;;;;19.01;50.95;100398.78;4847246;29;20072;-76
2020/12/08 07:50:00;;;;;;;6.78;4.78;;;;;;;18.91;50.62;100387.56;4862333;29;20101;-76
2020/12/08 07:52:25;;;;;;;7.80;4.47;;;;;;;18.89;50.80;100389.34;4859623;29;20431;-76
2020/12/08 07:54:51;;;;;;;5.10;3.97;;;;;;;19.01;50.72;100401.41;4828778;29;20034;-75
2020/12/08 07:57:16;;;;;;;7.32;4.18;;;;;;;18.91;50.84;100390.19;4835995;29;20064;-76
2020/12/08 07:59:42;;;;;;;7.07;6.00;;;;;;;18.92;50.62;100394.53;4828165;29;20060;-75
2020/12/08 08:02:08;;;;;;;5.78;3.83;;;;;;;18.94;50.70;100392.78;4861761;29;20045;-76
2020/12/08 08:04:33;;;;;;;5.28;4.07;;;;;;;19.01;50.64;100394.41;4831626;29;20493;-77
2020/12/08 08:06:58;;;;;;;6.43;4.10;;;;;;;18.93;50.65;100372.69;4830898;29;20036;-75
2020/12/08 08:09:24;;;;;;;5.07;4.00;;;;;;;19.01;50.71;100401.41;4859140;29;20611;-76
2020/12/08 08:11:49;;;;;;;9.60;4.30;;;;;;;18.95;50.96;100391.91;4860442;29;20029;-75
2020/12/08 08:14:15;;;;;;;9.48;5.25;;;;;;;18.98;50.60;100397.06;4845674;29;20062;-76
2020/12/08 08:16:40;;;;;;;5.63;4.25;;;;;;;18.95;50.47;100394.50;4830866;29;20128;-76
2020/12/08 08:19:05;;;;;;;5.07;4.00;;;;;;;18.91;50.54;100391.06;4845753;29;20388;-75
2020/12/08 08:21:31;;;;;;;5.72;4.07;;;;;;;18.95;50.54;100394.50;4829014;29;20509;-76
2020/12/08 08:24:00;;;;;;;5.65;4.05;;;;;;;18.98;50.55;100419.78;4846488;29;20124;-76
2020/12/08 08:26:26;;;;;;;6.80;4.70;;;;;;;18.89;50.49;100411.16;4861406;29;20116;-76
2020/12/08 08:28:51;;;;;;;5.47;3.88;;;;;;;18.96;50.92;100413.69;4846389;29;20056;-77
2020/12/08 08:31:17;;;;;;;5.95;3.90;;;;;;;18.97;50.33;100420.66;4831503;29;20044;-76
2020/12/08 08:33:42;;;;;;;5.05;3.88;;;;;;;19.00;50.44;100428.50;4862796;29;20438;-78
2020/12/08 08:36:07;;;;;;;4.68;3.60;;;;;;;18.95;50.50;100417.22;4863578;29;20034;-77
2020/12/08 08:38:33;;;;;;;6.68;3.97;;;;;;;19.02;50.54;100430.22;4863231;29;20038;-77
2020/12/08 08:40:58;;;;;;;4.63;3.58;;;;;;;18.92;50.32;100419.00;4830174;29;20034;-76
2020/12/08 08:43:25;;;;;;;5.63;3.90;;;;;;;18.93;50.39;100425.09;4842969;29;20396;-76
2020/12/08 08:45:52;;;;;;;6.75;3.95;;;;;;;19.01;50.42;100427.59;4829378;29;20128;-77
2020/12/08 08:48:17;;;;;;;4.93;3.92;;;;;;;19.00;50.28;100431.13;4847468;29;20473;-76
2020/12/08 08:50:42;;;;;;;3.97;3.40;;;;;;;19.00;50.26;100434.59;4863310;29;20044;-76
2020/12/08 08:53:08;;;;;;;5.38;3.70;;;;;;;18.98;50.19;100425.03;4843778;29;20160;-76
2020/12/08 08:55:33;;;;;;;4.53;4.00;;;;;;;18.98;50.24;100427.63;4831252;29;20030;-75
2020/12/08 08:58:00;;;;;;;4.53;3.33;;;;;;;18.98;50.15;100438.13;4843379;29;20053;-76
2020/12/08 09:00:25;;;;;;;5.18;4.38;;;;;;;19.01;50.39;100443.34;4846359;29;20057;-76
2020/12/08 09:02:50;;;;;;;5.07;3.30;;;;;;;19.00;50.11;100439.84;4861762;29;20064;-77
2020/12/08 09:05:16;;;;;;;5.53;3.53;;;;;;;18.97;50.12;100444.25;4822136;29;20129;-77
2020/12/08 09:07:41;;;;;;;4.13;3.35;;;;;;;19.10;50.19;100448.44;4858240;29;20430;-78
2020/12/08 09:10:07;;;;;;;4.03;3.00;;;;;;;19.11;50.19;100450.19;4860900;29;20043;-77
2020/12/08 09:12:32;;;;;;;3.25;2.95;;;;;;;19.18;50.61;100447.47;4845591;29;20040;-77
2020/12/08 09:15:00;;;;;;;7.13;4.07;;;;;;;19.17;50.13;100455.34;4858181;29;20037;-78
2020/12/08 09:17:25;;;;;;;5.60;4.45;;;;;;;19.05;50.27;100445.03;4829693;29;20037;-79
2020/12/08 09:19:52;;;;;;;4.93;3.45;;;;;;;19.13;50.64;100446.66;4838558;29;20085;-76
2020/12/08 09:22:17;;;;;;;4.47;3.25;;;;;;;19.15;50.69;100462.34;4861203;29;20061;-78
2020/12/08 09:24:43;;;;;;;5.15;3.63;;;;;;;19.10;50.41;100457.16;4827421;29;20036;-78
2020/12/08 09:27:08;;;;;;;5.28;3.72;;;;;;;19.18;50.67;100462.31;4841958;29;20386;-78
2020/12/08 09:29:34;;;;;;;5.03;3.65;;;;;;;19.20;50.34;100460.56;4830361;29;20030;-78
2020/12/08 09:32:00;;;;;;;4.22;3.05;;;;;;;19.12;50.51;100452.78;4845641;29;20064;-78
2020/12/08 09:34:26;;;;;;;5.43;3.10;;;;;;;19.15;50.53;100458.00;4815458;29;20129;-78
2020/12/08 09:36:52;;;;;;;6.03;3.17;;;;;;;19.14;50.40;100458.88;4825910;29;20038;-78
2020/12/08 09:39:18;;;;;;;5.00;3.38;;;;;;;19.13;50.29;100451.91;4827280;29;20038;-78
2020/12/08 09:41:44;;;;;;;4.93;3.85;;;;;;;19.10;50.55;100453.69;4827323;29;20038;-78
2020/12/08 09:44:10;;;;;;;4.18;3.33;;;;;;;19.18;50.13;100452.72;4812053;29;20030;-78
2020/12/08 09:46:39;;;;;;;4.82;2.97;;;;;;;19.19;50.06;100464.06;4826930;29;20029;-78
2020/12/08 09:49:05;;;;;;;4.15;3.67;;;;;;;19.11;50.51;100461.53;4845459;29;20017;-77
2020/12/08 09:51:31;;;;;;;5.05;3.30;;;;;;;19.17;50.45;100455.34;4861274;29;20207;-77
2020/12/08 09:53:57;;;;;;;4.05;3.05;;;;;;;19.18;50.11;100460.56;4821438;29;20057;-77
2020/12/08 09:56:23;;;;;;;4.15;2.75;;;;;;;19.16;49.94;100464.09;4830840;29;20041;-77
2020/12/08 09:58:48;;;;;;;3.40;3.03;;;;;;;19.15;50.55;100449.25;4841127;29;20040;-77
2020/12/08 10:01:14;;;;;;;3.47;2.83;;;;;;;19.21;50.05;100462.28;4844922;29;20112;-77
2020/12/08 10:03:39;;;;;;;3.22;2.50;;;;;;;19.14;50.07;100456.25;4834810;29;20036;-76
2020/12/08 10:06:06;;;;;;;3.65;3.25;;;;;;;19.08;50.29;100440.63;4826523;29;20089;-80
2020/12/08 10:08:32;;;;;;;4.63;3.42;;;;;;;19.22;50.09;100461.38;4830261;29;20034;-77
2020/12/08 10:10:57;;;;;;;3.90;2.60;;;;;;;19.24;50.00;100449.13;4813033;29;20124;-76
2020/12/08 10:13:22;;;;;;;3.42;2.40;;;;;;;19.19;50.32;100449.19;4815549;29;20068;-75
2020/12/08 10:15:48;;;;;;;5.20;2.95;;;;;;;19.26;49.88;100452.59;4834079;29;20029;-75
2020/12/08 10:18:13;;;;;;;5.35;3.15;;;;;;;19.19;49.84;100446.59;4830368;29;20564;-76
2020/12/08 10:20:39;;;;;;;4.22;3.05;;;;;;;19.23;50.35;100455.25;4812277;29;20030;-76
2020/12/08 10:23:06;;;;;;;5.07;2.92;;;;;;;19.24;50.33;100454.34;4832972;29;20186;-75
2020/12/08 10:25:33;;;;;;;3.85;3.15;;;;;;;19.25;50.08;100458.72;4843510;29;20093;-75
2020/12/08 10:27:59;;;;;;;4.28;3.25;;;;;;;19.28;50.00;100462.16;4849105;29;20037;-76
2020/12/08 10:30:25;;;;;;;5.65;3.00;;;;;;;19.34;50.16;100453.38;4845521;29;20409;-76
2020/12/08 10:32:51;;;;;;;3.50;2.75;;;;;;;19.35;50.43;100462.06;4857954;29;20040;-76
2020/12/08 10:35:16;;;;;;;6.00;3.40;;;;;;;19.30;50.01;100456.91;4849782;29;20052;-75
2020/12/08 10:37:42;;;;;;;4.40;3.30;;;;;;;19.35;50.42;100460.31;4829234;29;20041;-76
2020/12/08 10:40:07;;;;;;;4.78;2.90;;;;;;;19.21;50.13;100433.47;4827323;29;20044;-75
2020/12/08 10:42:32;;;;;;;4.47;2.58;;;;;;;19.32;50.34;100464.75;4853937;29;20090;-75
2020/12/08 10:44:58;;;;;;;5.60;2.83;;;;;;;19.21;50.33;100436.91;4844448;29;20037;-76
2020/12/08 10:47:23;;;;;;;5.13;2.95;;;;;;;19.32;50.49;100459.50;4852533;29;20037;-75
2020/12/08 10:49:48;;;;;;;4.45;2.88;;;;;;;19.33;50.20;100462.13;4824430;29;20085;-76
2020/12/08 10:52:14;;;;;;;5.47;3.47;;;;;;;19.37;50.36;100457.66;4841925;29;20034;-76
2020/12/08 10:54:39;;;;;;;4.53;3.33;;;;;;;19.36;50.09;100456.81;4828693;29;20082;-76
2020/12/08 10:57:05;;;;;;;4.40;3.08;;;;;;;19.22;50.23;100435.16;4828047;29;20041;-75
2020/12/08 10:59:30;;;;;;;3.45;2.55;;;;;;;19.35;50.51;100449.81;4827647;29;20038;-75
2020/12/08 11:01:56;;;;;;;3.17;2.47;;;;;;;19.21;50.32;100429.03;4810295;29;20057;-76
2020/12/08 11:04:22;;;;;;;4.32;2.58;;;;;;;19.31;50.34;100452.53;4811956;29;20045;-75
2020/12/08 11:06:47;;;;;;;3.45;2.53;;;;;;;19.37;49.88;100452.44;4824114;29;20400;-76
2020/12/08 11:09:12;;;;;;;5.10;2.85;;;;;;;19.40;50.38;100457.63;4821378;29;20511;-75
2020/12/08 11:11:38;;;;;;;2.88;2.50;;;;;;;19.32;50.31;100457.75;4833213;29;20407;-76
2020/12/08 11:14:03;;;;;;;3.38;2.50;;;;;;;19.31;49.87;100453.41;4832711;29;20037;-76
2020/12/08 11:16:29;;;;;;;2.80;2.40;;;;;;;19.41;50.15;100462.84;4828905;29;20560;-75
2020/12/08 11:18:55;;;;;;;5.97;3.30;;;;;;;19.40;50.04;100469.00;4849331;29;20071;-75
2020/12/08 11:21:28;;;;;;;3.70;2.75;;;;;;;19.41;50.24;100468.09;4851984;29;20140;-76
2020/12/08 11:23:55;;;;;;;5.20;3.05;;;;;;;19.41;49.99;100464.63;4852087;29;20040;-76